Ashville, New York
Current Conditions -  °F | °C
As of 12:35 AM on Wednesday 26 Nov 2014 (Local Time) from KJHW Reporting Station
Overcast Overcast  
Wind Chill: -4°   Ceiling: 2100
Heat Index: -1°   Visibility: 10mi
Dew Point: -6°   Wind: 5mph
Humidity: 69%   Direction: 310°NW
Pressure: 30.13"   Gusts: NA
Location:  42.1°N, 79.38°W
Report Text: KJHW 260535Z 31004KT 10SM OVC021 M01/M06 A3013 RMK AO1
Loading
Personal Weather Stations






























Interactive Weather Map New forecast layout! Learn more

10-Day Weather Forecast

Advertisements
Track Severe Weather on mobile